Huvudsida
METAR-TAF:

METAR-TAF

Flygplatser :

Dallas / Addison, Texas, USA

latitud: 32-58N, longitud: 096-50W, höjd: 196 m

Aktuellt väderrapport

Denna rapport gjordes för 26 minuter sedan, klockan 09:35 UTC
Vind 12 kt från syd i byarna ända upp till 19 kt
Temperatur 24°C
Fuktighet 78%
Tryck 1014 hPa
Sikt: 16.1 km
Brutna moln på en höjd av 2100 ft

METAR: KADS 270935Z AUTO 19012G19KT 10SM BKN021 24/20 A2994 RMK AO2 T02360195

Tid: 05:01 (10:01 UTC)


TAF: saknas

Aktuella väderrapporter och prognoser från 4000 flygplatser (METAR- och TAF-rapporter).

De tillgängliga stationerna syns som gula och röda prickar på kartan.

För musen över prickarna för att se namnen på stationerna.

Klicka sedan för att få väderrapporter och prognoser.

För att ändra kartan: Klicka på de gröna knapparna med ett svart kors på för att zooma in; den gröna knappen med ett streck på för att zooma ut; eller på de gröna pilarna för angränsande kartor.


METAR-TAF: